Skip to Main Content
SEARCH:
Location Air RH Dwp Precip Type Wind Speed Wind Gust Direction Pavement Temperature Date/Time
Hatem Bridge US 40 E/B 62 75 54 None 8 mph 11 mph S 76 - 76 2/23/2017 1:34:00 PM
I-270 at I-370 75 45 53 None Calm 5 mph SW 87 - 94 2/23/2017 1:30:00 PM
I-270 at MD-109 75 46 54 None 5 mph 15 mph S 90 - 90 2/23/2017 1:30:00 PM
I-495 at American Legion Bridge 75 49 55 None 5 mph 12 mph S 91 - 96 2/23/2017 1:30:00 PM
I-68 at MD-219 56 97 55 None 16 mph 23 mph SW 63 - 64 2/23/2017 1:30:00 PM
I-68 at Savage Mt - - - No Data Available - - No Data Available -
I-68 at Sideling Hill 72 54 55 None 9 mph 15 mph S 92 - 93 2/23/2017 1:30:00 PM
I-68 at WV Line 61 76 54 None 7 mph 14 mph SW 73 - 73 2/23/2017 1:30:00 PM
I-695 at I-83 75 47 54 None 6 mph 12 mph S 83 - 88 2/23/2017 1:30:00 PM
I-70 at Fred-Wash Co. 70 56 54 None Calm 7 mph SE 84 - 84 2/23/2017 1:30:00 PM
I-70 at I-695 - - - No Data Available - - No Data Available -
I-70 at I-81 72 51 54 None 7 mph 10 mph S 87 - 87 2/23/2017 1:30:00 PM
I-70 at MD-27 75 46 53 None 4 mph 11 mph S 92 - 93 2/23/2017 1:30:00 PM
I-70 at MD-32 73 49 53 None 7 mph 18 mph NW 86 - 94 2/23/2017 1:30:00 PM
I-83 at MD-137 73 52 55 None 4 mph 10 mph S 85 - 85 2/23/2017 1:30:00 PM
I-895 at I-95 - - - No Data Available - - No Data Available -
I-95 at I-695 NE 67 61 54 None 4 mph 6 mph SE 84 - 90 2/23/2017 1:34:00 PM
I-95 at Patuxent River 75 49 55 None 7 mph 13 mph S 89 - 90 2/23/2017 1:30:00 PM
I-95 at Tydings Bridge 66 63 54 None 4 mph 10 mph SE 80 - 84 2/23/2017 1:30:00 PM
I-95/495 at I-295 69 60 55 None 6 mph 10 mph SW 89 - 90 2/23/2017 1:30:00 PM
I-97 at MD-100 75 46 53 None 7 mph 14 mph S 87 - 90 2/23/2017 1:30:00 PM
I-97 at MD-32 75 45 53 None 5 mph 10 mph NW 82 - 92 2/23/2017 1:30:00 PM
MD 20 at MD 21 68 64 55 None 5 mph 10 mph SE 97 - 97 2/23/2017 1:30:00 PM
MD 231 at Patuxent River 73 54 56 None 10 mph 15 mph SW 87 - 88 2/23/2017 1:30:00 PM
MD 260 at Cox Rd 72 56 55 None 5 mph 10 mph SW 88 - 88 2/23/2017 1:30:00 PM
MD-135 at Salt Dome 60 78 54 None 5 mph 11 mph W 71 - 71 2/23/2017 1:30:00 PM
MD-140 at MD-97 73 52 54 None 8 mph 13 mph W 88 - 88 2/23/2017 1:30:00 PM
MD-200 EB at Bonifant Rd 73 52 55 None Calm 5 mph S 81 - 90 2/23/2017 1:33:00 PM
MD-200 WB at Muncaster Mill Rd 74 47 52 None 6 mph 13 mph SW 91 - 92 2/23/2017 1:33:00 PM
MD-213 at Sassafras River 70 64 57 None 7 mph 11 mph SW 88 - 88 2/23/2017 1:30:00 PM
MD-24 at Rock St Park 71 57 55 None Calm 7 mph E 72 - 72 2/23/2017 1:30:00 PM
MD-30 at PA Line 69 57 53 None 8 mph 15 mph SW 83 - 83 2/23/2017 1:30:00 PM
MD-301 at MD-305 70 59 55 None 8 mph 16 mph S 94 - 94 2/23/2017 1:30:00 PM
MD-33 at Knapps Narrows Drawbridge 67 65 55 None 8 mph 15 mph S 96 - 96 2/23/2017 1:30:00 PM
MD-344 at MD-224 73 53 56 None Calm 5 mph S 83 - 83 2/23/2017 1:30:00 PM
MD-4 at Patuxent River 71 61 57 None - - No Data Available 84 - 84 2/23/2017 1:30:00 PM
MD-404 at Choptank River 71 56 55 None 8 mph 18 mph SW 90 - 93 2/23/2017 1:30:00 PM
MD-43 at MD-150 64 72 55 None 6 mph 13 mph SE 85 - 91 2/23/2017 1:30:00 PM
MD-51 at Oldtown Salt Dome 75 48 54 None 8 mph 16 mph W 94 - 94 2/23/2017 1:30:00 PM
MD-64 at MD-418 70 58 55 None 5 mph 8 mph SW 89 - 90 2/23/2017 1:30:00 PM
US-1 at Baltimore / Harford Co. Line 69 60 54 None 4 mph 8 mph SE 86 - 87 2/23/2017 1:30:00 PM
US-1 at Conowingo Dam 65 70 55 None 6 mph 12 mph SE 86 - 86 2/23/2017 1:30:00 PM
US-13 at US-113 69 55 53 None 8 mph 15 mph SW 108 - 92 2/23/2017 1:30:00 PM
US-13 at US-50 - - - No Data Available - - No Data Available -
US-15 at MD-140 73 51 54 None 7 mph 11 mph SW 86 - 89 2/23/2017 1:30:00 PM
US-301 at MD-5 72 55 55 None 8 mph 18 mph SW 89 - 91 2/23/2017 1:30:00 PM
US-301 at Potomac 72 57 56 None 5 mph 9 mph S 88 - 90 2/23/2017 1:30:00 PM
US-301 on HWN Bridge 68 60 54 None 6 mph 7 mph SE 80 - 80 2/23/2017 1:32:00 PM
US-340 at MD-180 74 49 54 None 5 mph 13 mph S 90 - 91 2/23/2017 1:30:00 PM
US-50 at Choptank 62 77 55 None 8 mph 14 mph S 81 - 84 2/23/2017 1:30:00 PM
US-50 at I-95 75 49 55 None 5 mph 11 mph SW 88 - 90 2/23/2017 1:30:00 PM
US-50 at MD-2 67 62 54 None 5 mph 12 mph SE 62 - 87 2/23/2017 1:30:00 PM
US-50 at MD-331 68 65 56 None 9 mph 14 mph S 87 - 89 2/23/2017 1:30:00 PM
US-50 at OC Drawbridge 59 76 51 None Calm 10 mph S 85 - 85 2/23/2017 1:30:00 PM
US-50 at Table Rock Rd 58 84 53 None 5 mph 9 mph W 71 - 71 2/23/2017 1:30:00 PM
US-50 Kent Narrow Bridge 59 82 54 None 8 mph 15 mph SE 78 - 84 2/23/2017 1:30:00 PM
WPL Pier 31 63 70 53 None 4 mph 6 mph E 81 - 81 2/23/2017 1:33:00 PM
Location Air RH Dwp Precip Type Wind Speed Wind Gust Direction Pavement Temperature Date/Time